createdAt,value
2023-05-13T00:02:12.113Z,101194.09
2023-05-13T00:04:39.934Z,101190.78
2023-05-13T00:07:06.910Z,101192.59
2023-05-13T00:09:33.872Z,101187.53
2023-05-13T00:12:03.672Z,101189.94
2023-05-13T00:14:30.728Z,101192.63
2023-05-13T00:16:59.236Z,101189.09
2023-05-13T00:19:26.231Z,101194.69
2023-05-13T00:21:53.243Z,101192.25
2023-05-13T00:24:20.838Z,101191.28
2023-05-13T00:26:48.000Z,101198.34
2023-05-13T00:29:15.158Z,101193.25
2023-05-13T00:31:42.365Z,101204.56
2023-05-13T00:34:09.225Z,101204.97
2023-05-13T00:36:36.217Z,101201.41
2023-05-13T00:39:04.256Z,101208.59
2023-05-13T00:41:31.358Z,101205.69
2023-05-13T00:43:58.261Z,101212.50
2023-05-13T00:46:25.720Z,101206.75
2023-05-13T00:48:53.891Z,101207.75
2023-05-13T00:51:21.698Z,101214.31
2023-05-13T00:53:52.165Z,101218.97
2023-05-13T00:56:22.073Z,101211.41
2023-05-13T00:58:49.272Z,101216.78
2023-05-13T01:17:04.431Z,101215.91
2023-05-13T01:19:36.161Z,101227.50
2023-05-13T01:22:03.163Z,101219.22
2023-05-13T01:24:30.343Z,101228.13
2023-05-13T01:26:58.071Z,101238.47
2023-05-13T01:29:25.048Z,101234.09
2023-05-13T01:31:52.349Z,101236.50
2023-05-13T01:34:21.102Z,101242.38
2023-05-13T01:36:48.119Z,101239.47
2023-05-13T01:39:22.227Z,101238.97
2023-05-13T01:41:51.821Z,101241.63
2023-05-13T01:44:18.831Z,101248.59
2023-05-13T01:46:50.791Z,101240.91
2023-05-13T01:49:18.792Z,101250.66
2023-05-13T01:51:46.234Z,101245.41
2023-05-13T01:54:13.100Z,101252.50
2023-05-13T01:56:46.145Z,101249.66
2023-05-13T01:59:13.047Z,101250.41
2023-05-13T02:01:40.749Z,101248.81
2023-05-13T02:04:07.989Z,101246.72
2023-05-13T02:06:35.050Z,101240.84
2023-05-13T02:09:02.031Z,101248.19
2023-05-13T02:11:29.611Z,101244.13
2023-05-13T02:13:57.708Z,101249.47
2023-05-13T02:16:25.176Z,101248.97
2023-05-13T02:18:52.336Z,101252.56
2023-05-13T02:21:27.262Z,101253.50
2023-05-13T02:23:54.209Z,101255.84
2023-05-13T02:26:22.415Z,101249.13
2023-05-13T02:28:49.439Z,101254.66
2023-05-13T02:31:16.299Z,101260.44
2023-05-13T02:33:44.208Z,101262.72
2023-05-13T02:36:11.118Z,101260.47
2023-05-13T02:38:38.190Z,101259.09
2023-05-13T02:41:07.245Z,101265.75
2023-05-13T02:43:34.370Z,101266.19
2023-05-13T02:46:05.120Z,101264.41
2023-05-13T02:48:33.621Z,101265.13
2023-05-13T02:51:01.548Z,101265.34
2023-05-13T02:53:28.564Z,101273.72
2023-05-13T02:56:00.426Z,101269.88
2023-05-13T02:58:27.413Z,101267.50
2023-05-13T03:00:55.165Z,101267.44
2023-05-13T03:03:24.433Z,101263.75
2023-05-13T03:05:51.942Z,101272.66
2023-05-13T03:08:19.185Z,101274.16
2023-05-13T03:10:46.114Z,101268.56
2023-05-13T03:13:13.024Z,101272.84
2023-05-13T03:15:42.741Z,101275.97
2023-05-13T03:18:11.492Z,101273.59
2023-05-13T03:20:38.928Z,101277.25
2023-05-13T03:23:05.904Z,101282.03
2023-05-13T03:25:33.992Z,101282.16
2023-05-13T03:28:00.976Z,101282.91
2023-05-13T03:30:33.335Z,101281.19
2023-05-13T03:33:05.514Z,101293.81
2023-05-13T03:35:32.555Z,101290.50
2023-05-13T03:38:00.180Z,101283.66
2023-05-13T03:40:27.588Z,101289.50
2023-05-13T03:42:54.534Z,101287.38
2023-05-13T03:45:23.578Z,101285.66
2023-05-13T03:47:53.474Z,101293.66
2023-05-13T03:50:23.789Z,101286.31
2023-05-13T03:52:52.285Z,101293.38
2023-05-13T03:55:20.603Z,101294.00
2023-05-13T03:57:49.026Z,101296.16
2023-05-13T04:00:18.400Z,101291.00
2023-05-13T04:02:47.424Z,101299.38
2023-05-13T04:05:14.938Z,101305.34
2023-05-13T04:07:42.177Z,101308.13
2023-05-13T04:10:13.054Z,101314.34
2023-05-13T04:12:41.611Z,101313.94
2023-05-13T04:15:09.713Z,101319.47
2023-05-13T04:17:37.612Z,101321.75
2023-05-13T04:20:05.006Z,101322.72
2023-05-13T04:22:33.199Z,101324.22
2023-05-13T04:25:00.152Z,101327.44
2023-05-13T04:27:27.495Z,101332.00
2023-05-13T04:30:04.847Z,101330.75
2023-05-13T04:32:34.098Z,101326.88
2023-05-13T04:35:01.754Z,101337.81
2023-05-13T04:37:31.392Z,101338.66
2023-05-13T04:40:02.587Z,101335.03
2023-05-13T04:42:29.680Z,101336.31
2023-05-13T04:44:58.297Z,101331.94
2023-05-13T04:47:25.215Z,101337.81
2023-05-13T04:49:52.263Z,101350.09
2023-05-13T04:52:19.921Z,101345.38
2023-05-13T04:54:46.874Z,101344.47
2023-05-13T04:57:14.153Z,101345.00
2023-05-13T04:59:41.369Z,101351.19
2023-05-13T05:02:09.960Z,101347.88
2023-05-13T05:04:37.016Z,101348.28
2023-05-13T05:07:09.092Z,101358.94
2023-05-13T05:09:36.251Z,101349.94
2023-05-13T05:12:03.504Z,101350.69
2023-05-13T05:14:33.463Z,101358.28
2023-05-13T05:17:00.553Z,101355.47
2023-05-13T05:19:27.630Z,101364.03
2023-05-13T05:21:55.973Z,101362.94
2023-05-13T05:24:23.510Z,101357.38
2023-05-13T05:26:51.532Z,101354.06
2023-05-13T05:29:18.914Z,101362.31
2023-05-13T05:31:46.787Z,101367.25
2023-05-13T05:34:14.490Z,101366.81
2023-05-13T05:36:43.034Z,101372.22
2023-05-13T05:39:13.906Z,101371.97
2023-05-13T05:41:40.873Z,101366.00
2023-05-13T05:44:08.303Z,101371.88
2023-05-13T05:46:35.678Z,101369.63
2023-05-13T05:49:03.863Z,101373.50
2023-05-13T05:51:34.375Z,101374.97
2023-05-13T05:54:03.465Z,101362.25
2023-05-13T05:56:30.873Z,101374.47
2023-05-13T05:58:57.815Z,101376.19
2023-05-13T06:01:27.883Z,101374.78
2023-05-13T06:03:55.549Z,101380.91
2023-05-13T06:06:23.114Z,101374.00
2023-05-13T06:08:50.002Z,101379.13
2023-05-13T06:11:16.836Z,101381.09
2023-05-13T06:13:44.341Z,101378.56
2023-05-13T06:16:11.230Z,101381.88
2023-05-13T06:18:38.377Z,101378.72
2023-05-13T06:21:07.665Z,101380.06
2023-05-13T06:23:34.627Z,101379.34
2023-05-13T06:26:01.613Z,101380.22
2023-05-13T06:28:28.581Z,101390.00
2023-05-13T06:30:55.921Z,101385.09
2023-05-13T06:33:23.008Z,101374.16
2023-05-13T06:35:50.080Z,101378.28
2023-05-13T06:38:19.222Z,101379.63
2023-05-13T06:40:47.536Z,101385.38
2023-05-13T06:43:16.701Z,101373.66
2023-05-13T06:45:49.065Z,101380.06
2023-05-13T06:48:16.430Z,101377.72
2023-05-13T06:50:43.258Z,101372.47
2023-05-13T06:53:12.193Z,101366.88
2023-05-13T06:55:42.018Z,101374.16
2023-05-13T06:58:10.115Z,101370.97
2023-05-13T07:00:38.630Z,101360.19
2023-05-13T07:03:06.509Z,101367.63
2023-05-13T07:05:35.085Z,101362.09
2023-05-13T07:08:07.156Z,101360.25
2023-05-13T07:10:35.703Z,101359.91
2023-05-13T07:13:03.941Z,101365.47
2023-05-13T07:15:33.792Z,101354.72
2023-05-13T07:18:01.717Z,101365.47
2023-05-13T07:20:29.349Z,101356.56
2023-05-13T07:22:57.544Z,101351.94
2023-05-13T07:25:25.079Z,101345.44
2023-05-13T07:27:53.062Z,101346.28
2023-05-13T07:31:25.255Z,101344.22
2023-05-13T07:33:53.523Z,101341.53
2023-05-13T07:36:20.559Z,101353.59
2023-05-13T07:38:47.412Z,101343.19
2023-05-13T07:41:14.343Z,101349.41
2023-05-13T07:43:41.289Z,101347.06
2023-05-13T07:46:08.872Z,101331.84
2023-05-13T07:48:35.905Z,101332.03
2023-05-13T07:51:02.944Z,101329.69
2023-05-13T07:53:29.803Z,101335.28
2023-05-13T07:55:57.072Z,101331.06
2023-05-13T07:58:23.950Z,101325.66
2023-05-13T08:00:51.078Z,101335.38
2023-05-13T08:03:18.124Z,101323.56
2023-05-13T08:05:45.137Z,101324.69
2023-05-13T08:08:14.116Z,101328.34
2023-05-13T08:10:40.997Z,101327.97
2023-05-13T08:13:07.914Z,101326.59
2023-05-13T08:15:34.847Z,101328.41
2023-05-13T08:18:01.732Z,101320.25
2023-05-13T08:20:30.335Z,101321.41
2023-05-13T08:22:58.563Z,101324.38
2023-05-13T08:25:25.604Z,101328.31
2023-05-13T08:27:55.746Z,101327.06
2023-05-13T08:30:22.844Z,101321.66
2023-05-13T08:32:50.211Z,101311.13
2023-05-13T08:35:17.762Z,101325.59
2023-05-13T08:37:44.630Z,101320.78
2023-05-13T08:40:11.879Z,101319.97
2023-05-13T08:42:40.241Z,101327.53
2023-05-13T08:45:08.659Z,101330.94
2023-05-13T08:47:57.565Z,101335.38
2023-05-13T08:50:25.192Z,101332.91
2023-05-13T08:52:53.510Z,101335.88
2023-05-13T08:55:21.399Z,101339.88
2023-05-13T08:57:48.480Z,101337.03
2023-05-13T09:00:18.855Z,101334.63
2023-05-13T09:02:47.016Z,101335.34
2023-05-13T09:05:15.031Z,101336.59
2023-05-13T09:07:42.034Z,101334.31
2023-05-13T09:10:10.475Z,101326.38
2023-05-13T09:12:55.806Z,101329.94
2023-05-13T09:15:27.098Z,101321.28
2023-05-13T09:17:55.943Z,101324.28
2023-05-13T09:20:26.361Z,101324.78
2023-05-13T09:22:57.470Z,101315.41
2023-05-13T09:25:24.924Z,101328.31
2023-05-13T09:27:59.334Z,101330.84
2023-05-13T09:30:36.763Z,101324.78
2023-05-13T09:33:12.245Z,101326.44
2023-05-13T09:35:43.648Z,101327.88
2023-05-13T09:38:27.891Z,101322.47
2023-05-13T09:40:55.682Z,101315.84
2023-05-13T09:43:27.289Z,101320.38
2023-05-13T09:45:55.210Z,101309.88
2023-05-13T09:48:26.359Z,101320.22
2023-05-13T09:50:53.907Z,101318.38
2023-05-13T09:53:21.505Z,101312.00
2023-05-13T09:55:49.576Z,101300.38
2023-05-13T09:58:16.678Z,101310.03
2023-05-13T10:00:44.859Z,101312.28
2023-05-13T10:03:12.632Z,101297.41
2023-05-13T10:05:41.479Z,101302.50
2023-05-13T10:08:11.393Z,101300.06
2023-05-13T10:10:38.959Z,101301.50
2023-05-13T10:13:09.066Z,101306.75
2023-05-13T10:15:36.145Z,101296.81
2023-05-13T10:18:04.667Z,101307.47
2023-05-13T10:20:33.936Z,101302.94
2023-05-13T10:23:00.981Z,101292.84
2023-05-13T10:25:28.258Z,101286.84
2023-05-13T10:27:56.208Z,101297.22
2023-05-13T10:30:26.655Z,101299.19
2023-05-13T10:32:54.786Z,101297.94
2023-05-13T10:35:24.742Z,101293.25
2023-05-13T10:38:04.289Z,101297.91
2023-05-13T10:41:28.404Z,101296.22
2023-05-13T10:44:01.045Z,101284.19
2023-05-13T10:46:27.925Z,101279.34
2023-05-13T10:49:00.123Z,101291.41
2023-05-13T10:51:27.413Z,101279.66
2023-05-13T10:53:56.569Z,101281.59
2023-05-13T10:56:24.814Z,101271.41
2023-05-13T10:59:05.432Z,101279.53
2023-05-13T11:01:36.130Z,101269.91
2023-05-13T11:04:04.149Z,101271.84
2023-05-13T11:06:42.618Z,101267.09
2023-05-13T11:09:14.584Z,101271.97
2023-05-13T11:11:42.232Z,101272.75
2023-05-13T11:14:20.987Z,101272.75
2023-05-13T11:17:00.670Z,101287.22
2023-05-13T11:19:47.391Z,101278.94
2023-05-13T11:22:16.652Z,101276.94
2023-05-13T11:25:06.365Z,101268.13
2023-05-13T11:27:38.390Z,101266.53
2023-05-13T11:30:29.505Z,101261.47
2023-05-13T11:32:57.361Z,101262.72
2023-05-13T11:35:32.529Z,101265.59
2023-05-13T11:38:04.026Z,101266.47
2023-05-13T11:40:35.977Z,101259.16
2023-05-13T11:43:05.331Z,101260.25
2023-05-13T11:45:32.481Z,101253.97
2023-05-13T11:48:18.648Z,101245.03
2023-05-13T11:50:45.866Z,101254.19
2023-05-13T11:53:21.211Z,101239.25
2023-05-13T11:55:48.916Z,101244.13
2023-05-13T11:58:16.643Z,101249.38
2023-05-13T12:00:47.151Z,101249.00
2023-05-13T12:03:16.538Z,101247.31
2023-05-13T12:05:46.743Z,101239.69
2023-05-13T12:08:16.326Z,101238.53
2023-05-13T12:10:44.087Z,101246.47
2023-05-13T12:13:11.453Z,101243.09
2023-05-13T12:15:40.538Z,101244.41
2023-05-13T12:18:07.858Z,101238.19
2023-05-13T12:20:35.704Z,101232.13
2023-05-13T12:25:47.897Z,101253.75
2023-05-13T12:28:22.440Z,101262.56
2023-05-13T12:30:55.498Z,101256.78
2023-05-13T12:33:30.195Z,101249.72
2023-05-13T12:36:25.907Z,101245.03
2023-05-13T12:39:02.972Z,101254.16
2023-05-13T12:41:35.385Z,101247.38
2023-05-13T12:44:10.307Z,101247.91
2023-05-13T12:46:37.857Z,101233.84
2023-05-13T12:51:35.067Z,101236.56
2023-05-13T12:54:01.987Z,101225.72
2023-05-13T12:56:29.085Z,101227.59
2023-05-13T12:58:58.800Z,101238.63
2023-05-13T13:01:28.164Z,101228.94
2023-05-13T13:03:55.610Z,101235.91
2023-05-13T13:06:22.582Z,101237.25
2023-05-13T13:08:49.655Z,101227.78
2023-05-13T13:11:19.105Z,101231.66
2023-05-13T13:13:52.721Z,101236.59
2023-05-13T13:16:19.625Z,101224.25
2023-05-13T13:18:47.872Z,101224.34
2023-05-13T13:21:15.081Z,101236.03
2023-05-13T13:23:42.607Z,101223.63
2023-05-13T13:26:09.616Z,101227.44
2023-05-13T13:28:39.254Z,101227.66
2023-05-13T13:31:08.240Z,101234.81
2023-05-13T13:33:35.395Z,101238.81
2023-05-13T13:36:02.289Z,101228.75
2023-05-13T13:38:29.242Z,101238.56
2023-05-13T13:40:56.780Z,101239.78
2023-05-13T13:43:23.746Z,101238.38
2023-05-13T13:45:51.084Z,101231.78
2023-05-13T13:48:17.992Z,101215.56
2023-05-13T13:50:47.183Z,101226.72
2023-05-13T13:53:14.629Z,101232.34
2023-05-13T13:55:41.454Z,101236.06
2023-05-13T13:58:08.480Z,101228.41
2023-05-13T14:00:35.369Z,101238.38
2023-05-13T14:03:03.176Z,101222.16
2023-05-13T14:05:30.261Z,101215.44
2023-05-13T14:07:57.175Z,101215.94
2023-05-13T14:10:24.167Z,101206.75
2023-05-13T14:12:51.093Z,101209.72
2023-05-13T14:15:18.247Z,101209.00
2023-05-13T14:17:45.288Z,101197.97
2023-05-13T14:20:12.428Z,101209.69
2023-05-13T14:22:39.361Z,101208.84
2023-05-13T14:25:06.696Z,101192.06
2023-05-13T14:27:36.558Z,101189.88
2023-05-13T14:30:04.792Z,101193.94
2023-05-13T14:32:31.848Z,101189.13
2023-05-13T14:34:59.075Z,101185.28
2023-05-13T14:37:26.153Z,101184.03
2023-05-13T14:39:53.004Z,101189.72
2023-05-13T14:42:19.966Z,101195.34
2023-05-13T14:44:46.813Z,101186.47
2023-05-13T14:47:13.960Z,101190.13
2023-05-13T14:49:41.856Z,101191.03
2023-05-13T14:52:08.788Z,101191.63
2023-05-13T14:54:37.094Z,101189.84
2023-05-13T14:57:05.705Z,101186.28
2023-05-13T14:59:33.448Z,101187.00
2023-05-13T15:02:03.740Z,101178.66
2023-05-13T15:04:30.705Z,101189.47
2023-05-13T15:06:57.680Z,101180.44
2023-05-13T15:09:24.552Z,101189.66
2023-05-13T15:11:51.426Z,101184.91
2023-05-13T15:14:18.673Z,101189.00
2023-05-13T15:16:45.573Z,101179.59
2023-05-13T15:19:12.587Z,101176.88
2023-05-13T15:21:39.497Z,101184.63
2023-05-13T15:24:06.747Z,101179.91
2023-05-13T15:26:33.634Z,101173.69
2023-05-13T15:29:00.554Z,101177.00
2023-05-13T15:31:27.951Z,101187.09
2023-05-13T15:33:54.890Z,101173.38
2023-05-13T15:36:21.718Z,101175.41
2023-05-13T15:38:48.653Z,101181.72
2023-05-13T15:41:15.524Z,101185.22
2023-05-13T15:43:43.275Z,101183.03
2023-05-13T15:46:10.693Z,101183.28
2023-05-13T15:48:37.858Z,101181.59
2023-05-13T15:51:05.054Z,101185.91
2023-05-13T15:53:32.199Z,101183.66
2023-05-13T15:55:59.067Z,101182.00
2023-05-13T15:58:26.003Z,101181.13
2023-05-13T16:00:52.846Z,101182.78
2023-05-13T16:03:19.846Z,101185.81
2023-05-13T16:05:47.574Z,101182.22
2023-05-13T16:08:14.518Z,101177.72
2023-05-13T16:10:41.917Z,101178.81
2023-05-13T16:13:09.131Z,101174.69
2023-05-13T16:15:36.101Z,101182.44
2023-05-13T16:18:05.827Z,101186.19
2023-05-13T16:20:32.784Z,101179.75
2023-05-13T16:22:59.626Z,101188.16
2023-05-13T16:25:27.905Z,101190.84
2023-05-13T16:27:55.982Z,101192.78
2023-05-13T16:30:23.766Z,101189.63
2023-05-13T16:32:53.646Z,101193.38
2023-05-13T16:35:21.262Z,101192.16
2023-05-13T16:37:48.831Z,101186.03
2023-05-13T16:40:16.070Z,101197.53
2023-05-13T16:42:43.063Z,101213.16
2023-05-13T16:45:10.284Z,101210.72
2023-05-13T16:47:37.299Z,101216.75
2023-05-13T16:50:04.664Z,101218.63
2023-05-13T16:52:34.584Z,101227.19
2023-05-13T16:55:01.430Z,101225.03
2023-05-13T16:57:28.386Z,101215.25
2023-05-13T16:59:55.259Z,101219.16
2023-05-13T17:02:26.196Z,101221.97
2023-05-13T17:04:53.805Z,101224.00
2023-05-13T17:07:20.624Z,101228.41
2023-05-13T17:09:47.514Z,101223.41
2023-05-13T17:12:14.422Z,101224.38
2023-05-13T17:14:41.412Z,101219.69
2023-05-13T17:17:08.547Z,101220.59
2023-05-13T17:19:35.486Z,101216.59
2023-05-13T17:22:03.905Z,101209.44
2023-05-13T17:24:31.915Z,101222.63
2023-05-13T17:26:58.839Z,101220.19
2023-05-13T17:29:26.121Z,101225.84
2023-05-13T17:31:54.644Z,101234.75
2023-05-13T17:34:21.726Z,101226.06
2023-05-13T17:36:50.070Z,101230.06
2023-05-13T17:39:17.272Z,101227.97
2023-05-13T17:41:44.239Z,101226.34
2023-05-13T17:44:11.326Z,101231.16
2023-05-13T17:46:38.408Z,101230.78
2023-05-13T17:49:05.797Z,101233.03
2023-05-13T17:51:33.090Z,101239.13
2023-05-13T17:54:00.251Z,101244.03
2023-05-13T17:56:27.315Z,101246.97
2023-05-13T17:58:54.263Z,101245.22
2023-05-13T18:01:22.031Z,101238.22
2023-05-13T18:03:49.395Z,101235.94
2023-05-13T18:06:16.397Z,101241.19
2023-05-13T18:08:43.434Z,101232.41
2023-05-13T18:11:10.387Z,101236.72
2023-05-13T18:13:37.254Z,101244.41
2023-05-13T18:16:06.278Z,101238.28
2023-05-13T18:18:33.398Z,101235.69
2023-05-13T18:21:00.720Z,101244.69
2023-05-13T18:23:27.655Z,101250.03
2023-05-13T18:25:56.245Z,101250.94
2023-05-13T18:28:23.475Z,101254.53
2023-05-13T18:30:50.393Z,101252.63
2023-05-13T18:33:19.873Z,101255.16
2023-05-13T18:35:46.750Z,101252.50
2023-05-13T18:38:13.691Z,101256.06
2023-05-13T18:40:40.644Z,101257.47
2023-05-13T18:43:07.524Z,101253.41
2023-05-13T18:45:34.425Z,101256.13
2023-05-13T18:48:01.357Z,101258.81
2023-05-13T18:50:28.443Z,101262.75
2023-05-13T18:52:55.324Z,101253.56
2023-05-13T18:55:22.261Z,101258.38
2023-05-13T18:57:49.675Z,101265.59
2023-05-13T19:00:16.998Z,101261.19
2023-05-13T19:02:44.094Z,101267.41
2023-05-13T19:05:11.214Z,101271.41
2023-05-13T19:07:38.083Z,101268.72
2023-05-13T19:10:05.181Z,101272.78
2023-05-13T19:12:32.010Z,101269.19
2023-05-13T19:14:58.841Z,101279.50
2023-05-13T19:17:25.936Z,101281.16
2023-05-13T19:19:52.907Z,101281.28
2023-05-13T19:22:19.840Z,101283.09
2023-05-13T19:24:46.832Z,101282.47
2023-05-13T19:27:13.745Z,101284.44
2023-05-13T19:29:40.648Z,101282.00
2023-05-13T19:32:07.636Z,101285.44
2023-05-13T19:34:34.809Z,101282.47
2023-05-13T19:37:01.674Z,101281.31
2023-05-13T19:39:28.711Z,101282.13
2023-05-13T19:41:55.763Z,101286.50
2023-05-13T19:44:24.061Z,101280.59
2023-05-13T19:46:51.670Z,101290.72
2023-05-13T19:49:18.638Z,101281.56
2023-05-13T19:51:45.555Z,101289.97
2023-05-13T19:54:13.912Z,101281.81
2023-05-13T19:56:41.620Z,101291.25
2023-05-13T19:59:08.977Z,101287.84
2023-05-13T20:01:37.864Z,101287.72
2023-05-13T20:04:05.023Z,101280.41
2023-05-13T20:06:32.984Z,101291.31
2023-05-13T20:09:01.501Z,101288.63
2023-05-13T20:11:28.329Z,101289.41
2023-05-13T20:13:56.097Z,101280.72
2023-05-13T20:16:23.733Z,101284.03
2023-05-13T20:18:50.945Z,101278.09
2023-05-13T20:21:18.197Z,101283.59
2023-05-13T20:23:45.081Z,101283.59
2023-05-13T20:26:11.877Z,101286.78
2023-05-13T20:28:38.825Z,101282.03
2023-05-13T20:31:06.994Z,101292.41
2023-05-13T20:33:33.851Z,101299.22
2023-05-13T20:36:01.221Z,101301.78
2023-05-13T20:38:28.429Z,101296.91
2023-05-13T20:40:55.284Z,101290.22
2023-05-13T20:43:22.195Z,101289.47
2023-05-13T20:45:49.132Z,101287.25
2023-05-13T20:48:16.060Z,101286.03
2023-05-13T20:50:42.996Z,101287.25
2023-05-13T20:53:09.921Z,101289.81
2023-05-13T20:55:36.779Z,101287.50
2023-05-13T20:58:03.723Z,101282.63
2023-05-13T21:00:30.598Z,101279.31
2023-05-13T21:02:57.654Z,101281.03
2023-05-13T21:05:24.877Z,101282.50
2023-05-13T21:07:51.934Z,101274.53
2023-05-13T21:10:18.908Z,101275.03
2023-05-13T21:12:48.032Z,101282.00
2023-05-13T21:15:15.215Z,101279.91
2023-05-13T21:17:42.357Z,101281.69
2023-05-13T21:20:11.009Z,101273.91
2023-05-13T21:22:37.977Z,101282.66
2023-05-13T21:25:05.791Z,101282.41
2023-05-13T21:27:32.842Z,101279.09
2023-05-13T21:30:00.059Z,101276.28
2023-05-13T21:32:27.671Z,101276.56
2023-05-13T21:34:55.524Z,101262.53
2023-05-13T21:37:22.731Z,101270.97
2023-05-13T21:39:50.123Z,101275.97
2023-05-13T21:42:17.095Z,101269.50
2023-05-13T21:44:44.026Z,101277.28
2023-05-13T21:47:10.892Z,101271.22
2023-05-13T21:49:37.848Z,101279.72
2023-05-13T21:52:05.458Z,101274.09
2023-05-13T21:54:32.383Z,101271.94
2023-05-13T21:56:59.455Z,101265.13
2023-05-13T21:59:26.461Z,101267.56
2023-05-13T22:01:53.487Z,101273.75
2023-05-13T22:04:20.947Z,101276.56
2023-05-13T22:06:47.885Z,101271.69
2023-05-13T22:09:14.756Z,101268.63
2023-05-13T22:11:41.784Z,101274.44
2023-05-13T22:14:09.101Z,101266.41
2023-05-13T22:16:36.021Z,101261.88
2023-05-13T22:19:04.669Z,101264.44
2023-05-13T22:21:32.573Z,101263.44
2023-05-13T22:23:59.489Z,101260.63
2023-05-13T22:26:26.476Z,101256.75
2023-05-13T22:28:53.439Z,101260.19
2023-05-13T22:31:20.336Z,101255.22
2023-05-13T22:33:47.194Z,101258.88
2023-05-13T22:36:14.239Z,101251.03
2023-05-13T22:38:42.617Z,101256.25
2023-05-13T22:41:09.700Z,101262.69
2023-05-13T22:43:36.597Z,101261.72
2023-05-13T22:46:03.714Z,101258.41
2023-05-13T22:48:30.727Z,101259.38
2023-05-13T22:50:58.594Z,101259.59
2023-05-13T22:53:26.695Z,101248.88
2023-05-13T22:55:53.675Z,101249.13
2023-05-13T22:58:21.359Z,101245.28
2023-05-13T23:00:49.399Z,101244.66
2023-05-13T23:03:16.334Z,101260.13
2023-05-13T23:05:43.451Z,101254.66
2023-05-13T23:08:10.551Z,101249.28
2023-05-13T23:10:37.505Z,101256.69
2023-05-13T23:13:05.955Z,101252.28
2023-05-13T23:15:33.341Z,101250.69
2023-05-13T23:18:00.465Z,101243.13
2023-05-13T23:20:27.390Z,101242.16
2023-05-13T23:22:54.739Z,101241.53
2023-05-13T23:25:21.736Z,101243.34
2023-05-13T23:27:49.077Z,101244.75
2023-05-13T23:30:16.998Z,101240.91
2023-05-13T23:32:43.861Z,101246.31
2023-05-13T23:35:11.270Z,101230.88
2023-05-13T23:37:38.190Z,101237.94
2023-05-13T23:40:05.996Z,101233.16
2023-05-13T23:42:32.919Z,101231.94
2023-05-13T23:45:00.023Z,101221.16
2023-05-13T23:47:26.965Z,101223.19
2023-05-13T23:49:53.973Z,101221.66
2023-05-13T23:52:20.842Z,101219.84
2023-05-13T23:54:47.977Z,101218.25
2023-05-13T23:57:14.922Z,101221.19
2023-05-13T23:59:41.827Z,101215.56
